Time;durP1;ratioP1;P1;durP2;ratioP2;P2;SDS_P1;SDS_P2;PMS_P1;PMS_P2;Temp;Humidity;BMP_temperature;BMP_pressure;BME280_temperature;BME280_humidity;BME280_pressure;Samples;Min_cycle;Max_cycle;Signal;HPM_P1;HPM_P2
2024/01/14 00:01:55;;;;;;;;;;;;;;;5.68;58.54;100612.06;4957620;28;6792;-75
2024/01/14 00:04:21;;;;;;;;;;;;;;;5.66;58.23;100603.47;4956112;28;6977;-75
2024/01/14 00:06:47;;;;;;;;;;;;;;;5.67;58.01;100609.44;4947099;28;8507;-75
2024/01/14 00:09:13;;;;;;;;;;;;;;;5.67;58.46;100607.78;4959741;28;6796;-75
2024/01/14 00:11:39;;;;;;;;;;;;;;;5.67;58.39;100596.72;4944844;28;6864;-75
2024/01/14 00:14:05;;;;;;;;;;;;;;;5.66;58.40;100588.19;4958741;28;7230;-75
2024/01/14 00:16:37;;;;;;;;;;;;;;;5.67;58.45;100594.19;4943253;28;7240;-75
2024/01/14 00:19:06;;;;;;;;;;;;;;;5.65;58.28;100594.06;4959335;28;6815;-75
2024/01/14 00:21:32;;;;;;;;;;;;;;;5.64;58.53;100599.94;4951001;28;7261;-75
2024/01/14 00:23:58;;;;;;;;;;;;;;;5.63;58.71;100593.09;4941119;28;7331;-75
2024/01/14 00:26:27;;;;;;;;;;;;;;;5.60;58.61;100580.16;4955710;28;7279;-74
2024/01/14 00:28:57;;;;;;;;;;;;;;;5.58;58.73;100579.16;4944328;28;7452;-75
2024/01/14 00:31:23;;;;;;;;;;;;;;;5.56;58.30;100571.44;4944914;28;7323;-75
2024/01/14 00:33:50;;;;;;;;;;;;;;;5.56;58.18;100570.53;4958950;28;6979;-75
2024/01/14 00:36:17;;;;;;;;;;;;;;;5.55;58.90;100571.31;4943258;28;7021;-75
2024/01/14 00:38:44;;;;;;;;;;;;;;;5.57;58.32;100569.75;4961222;28;6972;-75
2024/01/14 00:41:10;;;;;;;;;;;;;;;5.57;58.44;100569.75;4945669;28;6951;-75
2024/01/14 00:43:36;;;;;;;;;;;;;;;5.59;58.64;100575.81;4964433;28;6792;-75
2024/01/14 00:46:02;;;;;;;;;;;;;;;5.61;58.60;100565.78;4961407;28;6995;-75
2024/01/14 00:48:31;;;;;;;;;;;;;;;5.61;58.48;100574.28;4933323;28;6967;-75
2024/01/14 00:50:57;;;;;;;;;;;;;;;5.63;58.70;100574.38;4944636;28;6985;-75
2024/01/14 00:53:23;;;;;;;;;;;;;;;5.65;58.68;100581.34;4955770;28;7282;-75
2024/01/14 00:55:49;;;;;;;;;;;;;;;5.69;58.75;100583.31;4949627;28;7173;-75
2024/01/14 00:58:15;;;;;;;;;;;;;;;5.71;58.78;100585.97;4960119;28;7150;-75
2024/01/14 01:00:41;;;;;;;;;;;;;;;5.76;58.43;100593.94;4958788;28;6776;-75
2024/01/14 01:03:06;;;;;;;;;;;;;;;5.79;58.51;100591.59;4955248;28;7776;-75
2024/01/14 01:05:32;;;;;;;;;;;;;;;5.81;58.21;100595.16;4959300;28;6805;-78
2024/01/14 01:07:58;;;;;;;;;;;;;;;5.84;58.65;100601.34;4949371;28;6939;-75
2024/01/14 01:10:24;;;;;;;;;;;;;;;5.86;58.66;100591.25;4965546;28;7325;-78
2024/01/14 01:12:49;;;;;;;;;;;;;;;5.86;58.40;100580.22;4962071;28;6784;-76
2024/01/14 01:15:15;;;;;;;;;;;;;;;5.86;58.46;100576.00;4961506;28;6935;-74
2024/01/14 01:17:41;;;;;;;;;;;;;;;5.86;58.01;100575.13;4961475;28;6792;-78
2024/01/14 01:20:10;;;;;;;;;;;;;;;5.86;57.93;100570.91;4946831;28;8503;-78
2024/01/14 01:22:36;;;;;;;;;;;;;;;5.83;58.58;100558.00;4962801;28;6800;-75
2024/01/14 01:25:02;;;;;;;;;;;;;;;5.81;57.89;100557.00;4941041;28;6847;-75
2024/01/14 01:27:29;;;;;;;;;;;;;;;5.80;57.97;100545.06;4954336;28;6976;-77
2024/01/14 01:29:56;;;;;;;;;;;;;;;5.73;57.93;100538.66;4953145;28;6983;-77
2024/01/14 01:32:22;;;;;;;;;;;;;;;5.66;57.88;100534.81;4960995;28;7257;-77
2024/01/14 01:34:48;;;;;;;;;;;;;;;5.62;58.09;100532.84;4964378;28;6831;-77
2024/01/14 01:37:14;;;;;;;;;;;;;;;5.59;58.20;100529.19;4943577;28;6835;-76
2024/01/14 01:39:40;;;;;;;;;;;;;;;5.55;58.11;100528.97;4948694;28;6983;-78
2024/01/14 01:42:05;;;;;;;;;;;;;;;5.52;57.99;100536.38;4949427;28;8384;-77
2024/01/14 01:44:31;;;;;;;;;;;;;;;5.52;58.30;100540.59;4967403;28;6967;-77
2024/01/14 01:46:57;;;;;;;;;;;;;;;5.52;58.33;100535.50;4962876;28;6776;-78
2024/01/14 01:49:23;;;;;;;;;;;;;;;5.52;58.51;100538.91;4947584;28;7199;-77
2024/01/14 01:51:50;;;;;;;;;;;;;;;5.54;58.53;100528.88;4954106;28;8508;-76
2024/01/14 01:54:22;;;;;;;;;;;;;;;5.55;58.48;100538.25;4948055;28;6956;-74
2024/01/14 01:56:51;;;;;;;;;;;;;;;5.52;58.70;100525.34;4944056;28;7802;-76
2024/01/14 01:59:17;;;;;;;;;;;;;;;5.52;58.04;100515.16;4959301;28;7172;-75
2024/01/14 02:01:47;;;;;;;;;;;;;;;5.52;58.44;100510.09;4941385;28;8416;-77
2024/01/14 02:04:15;;;;;;;;;;;;;;;5.51;58.53;100515.94;4961644;28;7242;-76
2024/01/14 02:06:41;;;;;;;;;;;;;;;5.50;58.46;100515.03;4946448;28;6966;-78
2024/01/14 02:09:08;;;;;;;;;;;;;;;5.52;58.61;100523.66;4956923;28;6776;-78
2024/01/14 02:11:35;;;;;;;;;;;;;;;5.55;59.24;100525.53;4961625;28;8663;-77
2024/01/14 02:14:02;;;;;;;;;;;;;;;5.57;59.04;100526.53;4961363;28;6950;-74
2024/01/14 02:16:28;;;;;;;;;;;;;;;5.60;58.53;100514.03;4963582;28;7021;-72
2024/01/14 02:18:53;;;;;;;;;;;;;;;5.61;58.53;100512.38;4963750;28;6828;-73
2024/01/14 02:21:30;;;;;;;;;;;;;;;5.60;58.58;100498.78;4963418;28;6772;-73
2024/01/14 02:24:29;;;;;;;;;;;;;;;5.61;58.51;100503.09;4955549;28;7058;-73
2024/01/14 02:26:55;;;;;;;;;;;;;;;5.59;58.32;100494.44;4958494;28;6804;-73
2024/01/14 02:29:22;;;;;;;;;;;;;;;5.60;58.52;100496.25;4947265;28;6991;-73
2024/01/14 02:31:48;;;;;;;;;;;;;;;5.61;58.61;100492.03;4960688;28;6900;-72
2024/01/14 02:34:14;;;;;;;;;;;;;;;5.62;58.72;100489.59;4955077;28;9158;-73
2024/01/14 02:36:40;;;;;;;;;;;;;;;5.62;58.10;100484.50;4963905;28;7434;-72
2024/01/14 02:39:06;;;;;;;;;;;;;;;5.62;58.49;100476.88;4963331;28;6780;-73
2024/01/14 02:41:33;;;;;;;;;;;;;;;5.60;58.49;100458.09;4951606;28;7322;-74
2024/01/14 02:43:58;;;;;;;;;;;;;;;5.60;58.58;100450.47;4966269;28;7381;-72
2024/01/14 02:46:24;;;;;;;;;;;;;;;5.57;58.55;100437.53;4964833;28;6984;-73
2024/01/14 02:48:50;;;;;;;;;;;;;;;5.55;58.24;100434.91;4941304;28;7315;-73
2024/01/14 02:51:16;;;;;;;;;;;;;;;5.53;58.44;100435.56;4964045;28;6987;-73
2024/01/14 02:53:42;;;;;;;;;;;;;;;5.51;58.44;100435.44;4961085;28;6936;-74
2024/01/14 02:56:10;;;;;;;;;;;;;;;5.49;58.47;100431.03;4929690;28;6987;-73
2024/01/14 02:58:36;;;;;;;;;;;;;;;5.47;58.31;100433.50;4933404;28;7066;-73
2024/01/14 03:01:02;;;;;;;;;;;;;;;5.46;58.39;100436.81;4964012;28;6952;-74
2024/01/14 03:03:27;;;;;;;;;;;;;;;5.46;58.56;100433.38;4943461;28;6982;-74
2024/01/14 03:05:53;;;;;;;;;;;;;;;5.46;58.45;100436.81;4946042;28;7039;-74
2024/01/14 03:08:18;;;;;;;;;;;;;;;5.46;58.30;100439.34;4967354;28;6784;-74
2024/01/14 03:10:44;;;;;;;;;;;;;;;5.47;58.54;100446.19;4947911;28;6976;-72
2024/01/14 03:13:13;;;;;;;;;;;;;;;5.50;58.46;100450.59;4960938;28;7145;-73
2024/01/14 03:15:39;;;;;;;;;;;;;;;5.54;58.60;100444.97;4965861;28;6966;-73
2024/01/14 03:18:05;;;;;;;;;;;;;;;5.58;58.39;100448.59;4967548;28;6804;-72
2024/01/14 03:20:30;;;;;;;;;;;;;;;5.58;58.35;100441.84;4958970;28;6779;-73
2024/01/14 03:22:56;;;;;;;;;;;;;;;5.61;58.06;100451.34;4964941;28;6947;-73
2024/01/14 03:25:22;;;;;;;;;;;;;;;5.64;58.36;100446.47;4960641;28;7180;-74
2024/01/14 03:27:47;;;;;;;;;;;;;;;5.64;58.76;100447.34;4963510;28;6792;-72
2024/01/14 03:30:13;;;;;;;;;;;;;;;5.67;58.55;100447.56;4948230;28;6852;-75
2024/01/14 03:32:39;;;;;;;;;;;;;;;5.67;58.32;100429.75;4963246;28;11558;-72
2024/01/14 03:35:04;;;;;;;;;;;;;;;5.67;58.32;100428.88;4962937;28;7189;-73
2024/01/14 03:37:30;;;;;;;;;;;;;;;5.67;58.45;100426.34;4953872;28;7349;-72
2024/01/14 03:39:57;;;;;;;;;;;;;;;5.65;58.20;100433.84;4961052;28;6900;-72
2024/01/14 03:42:23;;;;;;;;;;;;;;;5.64;57.87;100421.91;4962527;28;6772;-73
2024/01/14 03:44:49;;;;;;;;;;;;;;;5.64;58.60;100427.00;4964135;28;7000;-72
2024/01/14 03:47:15;;;;;;;;;;;;;;;5.65;58.15;100417.69;4960270;28;6800;-73
2024/01/14 03:49:41;;;;;;;;;;;;;;;5.64;58.30;100419.38;4964329;28;6780;-75
2024/01/14 03:52:06;;;;;;;;;;;;;;;5.64;58.46;100408.31;4960754;28;6942;-72
2024/01/14 03:54:32;;;;;;;;;;;;;;;5.64;58.63;100414.28;4960371;28;6792;-73
2024/01/14 03:56:58;;;;;;;;;;;;;;;5.65;58.03;100410.06;4948050;28;7501;-73
2024/01/14 03:59:23;;;;;;;;;;;;;;;5.64;58.31;100408.31;4963975;28;6962;-73
2024/01/14 04:01:50;;;;;;;;;;;;;;;5.63;58.49;100404.91;4959667;28;7223;-74
2024/01/14 04:04:15;;;;;;;;;;;;;;;5.64;58.17;100400.69;4962518;28;7394;-74
2024/01/14 04:06:43;;;;;;;;;;;;;;;5.63;58.33;100398.91;4961497;28;6780;-74
2024/01/14 04:09:09;;;;;;;;;;;;;;;5.61;57.98;100406.47;4963122;28;6848;-73
2024/01/14 04:11:35;;;;;;;;;;;;;;;5.58;57.94;100405.38;4961472;28;7037;-74
2024/01/14 04:14:01;;;;;;;;;;;;;;;5.56;57.97;100395.09;4962516;28;6926;-72
2024/01/14 04:16:26;;;;;;;;;;;;;;;5.48;57.89;100391.13;4961638;28;6803;-74
2024/01/14 04:18:52;;;;;;;;;;;;;;;5.44;57.90;100386.63;4962671;28;7147;-73
2024/01/14 04:21:24;;;;;;;;;;;;;;;5.38;57.64;100389.63;4966849;28;6914;-73
2024/01/14 04:23:51;;;;;;;;;;;;;;;5.33;58.03;100385.88;4945699;28;7043;-73
2024/01/14 04:26:21;;;;;;;;;;;;;;;5.31;58.30;100384.91;4961407;28;6808;-73
2024/01/14 04:28:47;;;;;;;;;;;;;;;5.28;58.37;100376.28;4958810;28;7298;-73
2024/01/14 04:31:13;;;;;;;;;;;;;;;5.28;58.41;100377.94;4963849;28;6808;-72
2024/01/14 04:33:43;;;;;;;;;;;;;;;5.25;58.84;100381.16;4947119;28;6937;-75
2024/01/14 04:36:09;;;;;;;;;;;;;;;5.25;58.69;100401.47;4952697;28;6975;-74
2024/01/14 04:38:35;;;;;;;;;;;;;;;5.27;58.73;100388.88;4959304;28;6862;-72
2024/01/14 04:41:01;;;;;;;;;;;;;;;5.30;58.40;100378.91;4961172;28;6963;-73
2024/01/14 04:43:27;;;;;;;;;;;;;;;5.30;58.29;100368.75;4960480;28;6776;-72
2024/01/14 04:45:54;;;;;;;;;;;;;;;5.29;58.19;100361.91;4959030;28;6788;-73
2024/01/14 04:48:19;;;;;;;;;;;;;;;5.26;58.41;100361.72;4952231;28;6996;-72
2024/01/14 04:50:45;;;;;;;;;;;;;;;5.25;58.41;100370.13;4957913;28;6788;-72
2024/01/14 04:53:11;;;;;;;;;;;;;;;5.21;58.47;100365.59;4957004;28;7273;-73
2024/01/14 04:55:37;;;;;;;;;;;;;;;5.17;58.75;100356.88;4960493;28;6989;-73
2024/01/14 04:58:04;;;;;;;;;;;;;;;5.13;58.60;100348.16;4963232;28;6868;-75
2024/01/14 05:00:29;;;;;;;;;;;;;;;5.11;58.84;100347.16;4959362;28;6945;-72
2024/01/14 05:02:55;;;;;;;;;;;;;;;5.10;58.85;100350.47;4961747;28;7309;-73
2024/01/14 05:05:21;;;;;;;;;;;;;;;5.09;59.10;100346.19;4961900;28;7742;-74
2024/01/14 05:07:46;;;;;;;;;;;;;;;5.09;58.92;100346.19;4952115;28;6959;-74
2024/01/14 05:10:12;;;;;;;;;;;;;;;5.08;59.03;100344.41;4946064;28;7179;-72
2024/01/14 05:12:38;;;;;;;;;;;;;;;5.08;59.14;100336.78;4961639;28;6776;-75
2024/01/14 05:15:04;;;;;;;;;;;;;;;5.08;59.25;100336.78;4961236;28;6932;-73
2024/01/14 05:17:30;;;;;;;;;;;;;;;5.09;58.92;100330.94;4958877;28;6816;-73
2024/01/14 05:19:55;;;;;;;;;;;;;;;5.08;59.30;100331.72;4943355;28;6963;-73
2024/01/14 05:22:22;;;;;;;;;;;;;;;5.08;59.40;100336.78;4957666;28;6776;-73
2024/01/14 05:24:50;;;;;;;;;;;;;;;5.09;59.00;100332.59;4958759;28;6952;-73
2024/01/14 05:27:16;;;;;;;;;;;;;;;5.09;58.67;100337.69;4962009;28;7019;-73
2024/01/14 05:29:43;;;;;;;;;;;;;;;5.08;58.88;100334.25;4945284;28;6994;-72
2024/01/14 05:32:14;;;;;;;;;;;;;;;5.09;59.22;100328.41;4943251;28;7329;-75
2024/01/14 05:34:44;;;;;;;;;;;;;;;5.11;59.00;100325.97;4962234;28;6983;-73
2024/01/14 05:37:11;;;;;;;;;;;;;;;5.11;59.29;100316.66;4961449;28;6988;-75
2024/01/14 05:39:37;;;;;;;;;;;;;;;5.11;58.89;100316.66;4957806;28;7462;-72
2024/01/14 05:42:03;;;;;;;;;;;;;;;5.13;58.98;100306.63;4943927;28;6784;-73
2024/01/14 05:44:31;;;;;;;;;;;;;;;5.13;59.10;100315.13;4959506;28;6942;-78
2024/01/14 05:46:56;;;;;;;;;;;;;;;5.14;59.11;100311.81;4952362;28;6977;-76
2024/01/14 05:49:22;;;;;;;;;;;;;;;5.16;59.14;100305.97;4951182;28;7350;-77
2024/01/14 05:51:48;;;;;;;;;;;;;;;5.15;58.73;100302.53;4943241;28;6784;-77
2024/01/14 05:54:17;;;;;;;;;;;;;;;5.13;59.27;100299.91;4959028;28;6855;-76
2024/01/14 05:56:43;;;;;;;;;;;;;;;5.14;59.55;100306.75;4961260;28;6983;-78
2024/01/14 05:59:09;;;;;;;;;;;;;;;5.14;59.20;100301.66;4954130;28;8621;-79
2024/01/14 06:01:35;;;;;;;;;;;;;;;5.14;59.29;100290.59;4961030;28;6760;-75
2024/01/14 06:04:00;;;;;;;;;;;;;;;5.13;58.85;100296.47;4961082;28;6950;-78
2024/01/14 06:06:26;;;;;;;;;;;;;;;5.13;59.06;100289.72;4960353;28;7015;-75
2024/01/14 06:08:52;;;;;;;;;;;;;;;5.13;59.04;100297.34;4930485;28;6799;-78
2024/01/14 06:11:18;;;;;;;;;;;;;;;5.13;59.32;100299.91;4942581;28;7187;-77
2024/01/14 06:13:44;;;;;;;;;;;;;;;5.14;59.24;100301.66;4961862;28;6844;-78
2024/01/14 06:16:10;;;;;;;;;;;;;;;5.16;59.01;100303.41;4961982;28;7089;-78
2024/01/14 06:18:36;;;;;;;;;;;;;;;5.16;59.29;100301.75;4960712;28;6788;-78
2024/01/14 06:21:03;;;;;;;;;;;;;;;5.17;59.13;100307.72;4954939;28;6958;-74
2024/01/14 06:23:29;;;;;;;;;;;;;;;5.16;59.16;100293.25;4959506;28;6852;-76
2024/01/14 06:25:55;;;;;;;;;;;;;;;5.17;58.97;100292.47;4942366;28;7209;-78
2024/01/14 06:28:21;;;;;;;;;;;;;;;5.18;59.18;100302.75;4946631;28;6939;-75
2024/01/14 06:30:47;;;;;;;;;;;;;;;5.18;58.91;100292.59;4966519;28;6784;-77
2024/01/14 06:33:13;;;;;;;;;;;;;;;5.19;59.14;100286.72;4964482;28;6840;-79
2024/01/14 06:35:40;;;;;;;;;;;;;;;5.19;58.96;100280.75;4952993;28;7586;-76
2024/01/14 06:38:08;;;;;;;;;;;;;;;5.18;59.08;100282.41;4962819;28;6788;-77
2024/01/14 06:40:34;;;;;;;;;;;;;;;5.16;58.86;100273.78;4959749;28;7165;-77
2024/01/14 06:42:59;;;;;;;;;;;;;;;5.16;58.94;100278.00;4949782;28;7590;-77
2024/01/14 06:45:25;;;;;;;;;;;;;;;5.14;58.95;100281.31;4960405;28;6946;-78
2024/01/14 06:47:51;;;;;;;;;;;;;;;5.13;59.16;100282.09;4949908;28;6982;-76
2024/01/14 06:50:16;;;;;;;;;;;;;;;5.13;59.00;100273.59;4961652;28;6840;-80
2024/01/14 06:52:42;;;;;;;;;;;;;;;5.12;58.70;100266.75;4959254;28;7015;-77
2024/01/14 06:55:08;;;;;;;;;;;;;;;5.12;58.63;100271.84;4945479;28;8837;-75
2024/01/14 06:57:34;;;;;;;;;;;;;;;5.12;58.62;100264.22;4958033;28;6908;-75
2024/01/14 07:00:04;;;;;;;;;;;;;;;5.08;58.94;100260.56;4925736;28;7126;-75
2024/01/14 07:02:29;;;;;;;;;;;;;;;5.05;59.06;100250.22;4945250;28;6879;-75
2024/01/14 07:04:55;;;;;;;;;;;;;;;5.04;58.79;100242.47;4943217;28;6946;-75
2024/01/14 07:07:21;;;;;;;;;;;;;;;5.00;59.03;100242.28;4958296;28;7289;-75
2024/01/14 07:09:47;;;;;;;;;;;;;;;4.99;59.10;100234.53;4961824;28;7996;-80
2024/01/14 07:12:12;;;;;;;;;;;;;;;4.97;58.76;100221.75;4938192;28;8235;-75
2024/01/14 07:14:38;;;;;;;;;;;;;;;4.94;58.73;100231.69;4959868;28;6975;-75
2024/01/14 07:17:04;;;;;;;;;;;;;;;4.91;59.29;100231.50;4948941;28;7357;-75
2024/01/14 07:19:29;;;;;;;;;;;;;;;4.91;59.17;100231.50;4949754;28;6953;-75
2024/01/14 07:21:56;;;;;;;;;;;;;;;4.90;59.01;100233.91;4951629;28;6940;-75
2024/01/14 07:24:22;;;;;;;;;;;;;;;4.90;59.29;100223.75;4962721;28;7137;-75
2024/01/14 07:26:48;;;;;;;;;;;;;;;4.89;58.96;100227.09;4944992;28;6863;-75
2024/01/14 07:29:13;;;;;;;;;;;;;;;4.89;58.80;100234.69;4961053;28;7038;-75
2024/01/14 07:31:39;;;;;;;;;;;;;;;4.89;59.19;100232.16;4958898;28;7335;-76
2024/01/14 07:34:06;;;;;;;;;;;;;;;4.90;59.03;100228.84;4961324;28;6772;-76
2024/01/14 07:36:32;;;;;;;;;;;;;;;4.90;58.87;100236.47;4946841;28;7278;-75
2024/01/14 07:38:58;;;;;;;;;;;;;;;4.91;59.28;100230.59;4960901;28;6975;-76
2024/01/14 07:41:24;;;;;;;;;;;;;;;4.91;59.63;100223.88;4960348;28;6788;-76
2024/01/14 07:43:50;;;;;;;;;;;;;;;4.92;59.39;100232.38;4961162;28;6994;-76
2024/01/14 07:46:16;;;;;;;;;;;;;;;4.92;59.49;100234.91;4949829;28;7004;-76
2024/01/14 07:48:42;;;;;;;;;;;;;;;4.94;59.46;100228.28;4928227;28;8664;-76
2024/01/14 07:51:08;;;;;;;;;;;;;;;4.94;59.23;100234.25;4945493;28;7083;-76
2024/01/14 07:53:33;;;;;;;;;;;;;;;4.93;59.03;100218.91;4951067;28;6962;-76
2024/01/14 07:56:01;;;;;;;;;;;;;;;4.93;59.19;100227.41;4959450;28;7200;-76
2024/01/14 07:58:27;;;;;;;;;;;;;;;4.93;58.77;100226.53;4959324;28;6954;-76
2024/01/14 08:00:53;;;;;;;;;;;;;;;4.91;58.60;100220.44;4957625;28;7018;-76
2024/01/14 08:03:18;;;;;;;;;;;;;;;4.90;58.87;100218.69;4961457;28;6789;-76
2024/01/14 08:05:44;;;;;;;;;;;;;;;4.89;58.90;100227.09;4959405;28;7239;-76
2024/01/14 08:08:10;;;;;;;;;;;;;;;4.89;59.09;100227.09;4963386;28;6776;-75
2024/01/14 08:10:36;;;;;;;;;;;;;;;4.86;59.04;100222.66;4958632;28;6784;-76
2024/01/14 08:13:01;;;;;;;;;;;;;;;4.86;58.70;100225.22;4942477;28;7167;-75
2024/01/14 08:15:27;;;;;;;;;;;;;;;4.86;58.96;100222.66;4941531;28;7187;-76
2024/01/14 08:17:53;;;;;;;;;;;;;;;4.84;58.90;100220.03;4958599;28;8038;-76
2024/01/14 08:20:19;;;;;;;;;;;;;;;4.84;58.58;100222.59;4942918;28;7236;-76
2024/01/14 08:22:45;;;;;;;;;;;;;;;4.83;58.67;100227.53;4936240;28;7264;-75
2024/01/14 08:25:10;;;;;;;;;;;;;;;4.82;58.97;100221.56;4958567;28;6930;-77
2024/01/14 08:27:40;;;;;;;;;;;;;;;4.81;58.83;100232.50;4958488;28;6784;-76
2024/01/14 08:30:07;;;;;;;;;;;;;;;4.80;59.18;100232.44;4944255;28;7022;-76
2024/01/14 08:32:33;;;;;;;;;;;;;;;4.79;58.47;100246.78;4947790;28;7136;-76
2024/01/14 08:34:59;;;;;;;;;;;;;;;4.78;59.09;100237.41;4932542;28;6820;-75
2024/01/14 08:37:29;;;;;;;;;;;;;;;4.78;58.88;100234.84;4958250;28;6995;-76
2024/01/14 08:39:55;;;;;;;;;;;;;;;4.79;58.99;100231.53;4961763;28;7273;-76
2024/01/14 08:42:20;;;;;;;;;;;;;;;4.78;59.02;100229.78;4959823;28;7108;-75
2024/01/14 08:44:47;;;;;;;;;;;;;;;4.78;58.77;100233.97;4960228;28;7958;-75
2024/01/14 08:47:13;;;;;;;;;;;;;;;4.79;58.88;100231.53;4939254;28;7767;-75
2024/01/14 08:49:42;;;;;;;;;;;;;;;4.79;58.90;100239.16;4956274;28;6793;-76
2024/01/14 08:52:08;;;;;;;;;;;;;;;4.81;58.98;100229.97;4945127;28;8360;-76
2024/01/14 08:54:37;;;;;;;;;;;;;;;4.81;58.57;100229.97;4947546;28;6986;-76
2024/01/14 08:57:03;;;;;;;;;;;;;;;4.82;58.94;100236.81;4956953;28;7112;-76
2024/01/14 08:59:29;;;;;;;;;;;;;;;4.83;58.85;100228.44;4959778;28;6804;-76
2024/01/14 09:01:55;;;;;;;;;;;;;;;4.84;58.67;100236.94;4926671;28;7298;-76
2024/01/14 09:04:20;;;;;;;;;;;;;;;4.85;58.70;100237.03;4942377;28;7387;-76
2024/01/14 09:06:46;;;;;;;;;;;;;;;4.88;58.69;100246.53;4958991;28;6931;-76
2024/01/14 09:09:12;;;;;;;;;;;;;;;4.89;58.96;100235.59;4954918;28;9009;-75
2024/01/14 09:11:38;;;;;;;;;;;;;;;4.89;59.02;100229.63;4941381;28;6792;-75
2024/01/14 09:14:05;;;;;;;;;;;;;;;4.88;59.12;100227.88;4960015;28;6808;-76
2024/01/14 09:16:30;;;;;;;;;;;;;;;4.89;58.66;100234.69;4958415;28;7157;-76
2024/01/14 09:18:56;;;;;;;;;;;;;;;4.89;58.96;100222.91;4941950;28;6964;-76
2024/01/14 09:21:22;;;;;;;;;;;;;;;4.89;58.51;100233.06;4958183;28;7227;-76
2024/01/14 09:23:47;;;;;;;;;;;;;;;4.89;58.67;100222.00;4939715;28;6776;-76
2024/01/14 09:26:13;;;;;;;;;;;;;;;4.87;58.20;100221.88;4948723;28;6945;-76
2024/01/14 09:28:39;;;;;;;;;;;;;;;4.89;58.57;100225.44;4954890;28;6788;-76
2024/01/14 09:31:05;;;;;;;;;;;;;;;4.88;58.79;100220.25;4955726;28;6780;-75
2024/01/14 09:33:32;;;;;;;;;;;;;;;4.89;58.86;100217.81;4956017;28;7074;-76
2024/01/14 09:36:08;;;;;;;;;;;;;;;4.88;58.66;100212.63;4958736;28;6796;-76
2024/01/14 09:38:35;;;;;;;;;;;;;;;4.88;58.10;100210.09;4957729;28;6975;-76
2024/01/14 09:41:38;;;;;;;;;;;;;;;4.85;58.64;100221.81;4957138;28;6857;-77
2024/01/14 09:44:08;;;;;;;;;;;;;;;4.83;58.27;100212.31;4958591;28;6812;-76
2024/01/14 09:46:34;;;;;;;;;;;;;;;4.84;58.75;100212.44;4954612;28;6827;-76
2024/01/14 09:49:02;;;;;;;;;;;;;;;4.86;58.68;100210.88;4915452;28;7517;-75
2024/01/14 09:51:30;;;;;;;;;;;;;;;4.90;58.58;100208.53;4957485;28;7258;-76
2024/01/14 09:54:00;;;;;;;;;;;;;;;4.91;58.52;100211.19;4958259;28;7144;-76
2024/01/14 09:56:31;;;;;;;;;;;;;;;4.93;58.00;100209.63;4960455;28;6876;-76
2024/01/14 09:58:58;;;;;;;;;;;;;;;4.94;58.04;100207.97;4955240;28;7007;-75
2024/01/14 10:01:30;;;;;;;;;;;;;;;4.95;58.03;100199.56;4957636;28;6796;-75
2024/01/14 10:04:00;;;;;;;;;;;;;;;4.97;58.13;100205.63;4937197;28;8068;-75
2024/01/14 10:06:27;;;;;;;;;;;;;;;4.99;58.02;100198.97;4964281;28;6793;-76
2024/01/14 10:08:53;;;;;;;;;;;;;;;5.00;57.79;100200.75;4942446;28;6979;-76
2024/01/14 10:11:18;;;;;;;;;;;;;;;5.03;58.63;100206.06;4959539;28;7267;-76
2024/01/14 10:13:44;;;;;;;;;;;;;;;5.06;57.89;100206.25;4955627;28;6954;-75
2024/01/14 10:16:13;;;;;;;;;;;;;;;5.07;57.84;100208.00;4940931;28;7051;-76
2024/01/14 10:18:39;;;;;;;;;;;;;;;5.09;57.87;100191.19;4939363;28;6981;-76
2024/01/14 10:21:05;;;;;;;;;;;;;;;5.11;57.90;100187.09;4959900;28;6784;-76
2024/01/14 10:23:33;;;;;;;;;;;;;;;5.12;58.21;100183.81;4958777;28;8168;-75
2024/01/14 10:26:02;;;;;;;;;;;;;;;5.15;57.94;100175.47;4942704;28;6998;-75
2024/01/14 10:28:35;;;;;;;;;;;;;;;5.17;58.24;100179.03;4957716;28;6876;-75
2024/01/14 10:31:03;;;;;;;;;;;;;;;5.18;58.13;100169.72;4954892;28;7273;-75
2024/01/14 10:33:35;;;;;;;;;;;;;;;5.19;57.85;100168.94;4956678;28;8577;-74
2024/01/14 10:36:08;;;;;;;;;;;;;;;5.18;57.99;100172.25;4941652;28;7162;-75
2024/01/14 10:38:37;;;;;;;;;;;;;;;5.19;58.22;100166.41;4950979;28;6800;-76
2024/01/14 10:41:03;;;;;;;;;;;;;;;5.19;57.89;100159.66;4959086;28;6872;-75
2024/01/14 10:43:29;;;;;;;;;;;;;;;5.20;57.64;100163.06;4962644;28;7343;-78
2024/01/14 10:45:58;;;;;;;;;;;;;;;5.20;57.50;100152.91;4960676;28;6788;-76
2024/01/14 10:48:27;;;;;;;;;;;;;;;5.20;57.70;100142.75;4961006;28;6932;-75
2024/01/14 10:50:56;;;;;;;;;;;;;;;5.20;57.81;100142.75;4960175;28;7722;-76
2024/01/14 10:53:30;;;;;;;;;;;;;;;5.19;57.28;100135.91;4955631;28;7093;-75
2024/01/14 10:56:06;;;;;;;;;;;;;;;5.18;57.99;100137.59;4960576;28;6808;-76
2024/01/14 10:58:36;;;;;;;;;;;;;;;5.19;57.75;100130.81;4960099;28;6992;-76
2024/01/14 11:01:07;;;;;;;;;;;;;;;5.18;57.91;100127.44;4942639;28;7269;-75
2024/01/14 11:03:34;;;;;;;;;;;;;;;5.19;57.72;100129.19;4941146;28;6992;-75
2024/01/14 11:06:01;;;;;;;;;;;;;;;5.22;57.49;100125.97;4949760;28;7080;-75
2024/01/14 11:08:27;;;;;;;;;;;;;;;5.23;57.95;100123.50;4943511;28;7003;-74
2024/01/14 11:10:53;;;;;;;;;;;;;;;5.24;57.44;100109.16;4964101;28;7168;-74
2024/01/14 11:13:37;;;;;;;;;;;;;;;5.25;57.71;100106.69;4952400;28;6928;-75
2024/01/14 11:16:14;;;;;;;;;;;;;;;5.26;57.45;100102.50;4949985;28;7884;-75
2024/01/14 11:18:52;;;;;;;;;;;;;;;5.25;57.56;100108.38;4943897;28;7255;-75
2024/01/14 11:21:45;;;;;;;;;;;;;;;5.28;57.64;100089.13;4949221;28;7031;-75
2024/01/14 11:24:10;;;;;;;;;;;;;;;5.30;57.29;100096.81;4942463;28;7009;-75
2024/01/14 11:26:36;;;;;;;;;;;;;;;5.34;57.48;100091.16;4960866;28;6940;-75
2024/01/14 11:29:03;;;;;;;;;;;;;;;5.37;57.08;100083.72;4950020;28;7134;-76
2024/01/14 11:32:03;;;;;;;;;;;;;;;5.43;57.32;100075.63;4958708;28;6871;-76
2024/01/14 11:34:50;;;;;;;;;;;;;;;5.45;57.40;100065.56;4965941;28;7218;-77
2024/01/14 11:37:53;;;;;;;;;;;;;;;5.48;57.34;100060.66;4949054;28;7147;-75
2024/01/14 11:40:27;;;;;;;;;;;;;;;5.49;57.22;100054.78;4956915;28;7164;-75
2024/01/14 11:43:01;;;;;;;;;;;;;;;5.51;57.00;100063.41;4949221;28;7194;-75
2024/01/14 11:45:27;;;;;;;;;;;;;;;5.51;56.72;100058.31;4947920;28;7187;-75
2024/01/14 11:47:56;;;;;;;;;;;;;;;5.51;56.94;100050.69;4964547;28;6925;-75
2024/01/14 11:50:25;;;;;;;;;;;;;;;5.51;56.82;100048.16;4967198;28;6785;-75
2024/01/14 11:52:54;;;;;;;;;;;;;;;5.50;56.54;100041.28;4945740;28;6982;-75
2024/01/14 11:55:31;;;;;;;;;;;;;;;5.49;57.05;100037.88;4953518;28;7456;-75
2024/01/14 11:58:19;;;;;;;;;;;;;;;5.49;57.09;100019.19;4946167;28;7039;-75
2024/01/14 12:00:49;;;;;;;;;;;;;;;5.48;56.86;100032.69;4962187;28;7239;-75
2024/01/14 12:03:17;;;;;;;;;;;;;;;5.51;57.13;100027.81;4948456;28;6796;-75
2024/01/14 12:05:44;;;;;;;;;;;;;;;5.50;56.74;100024.38;4947230;28;6958;-75
2024/01/14 12:08:10;;;;;;;;;;;;;;;5.50;56.40;100020.94;4946241;28;7160;-76
2024/01/14 12:10:35;;;;;;;;;;;;;;;5.50;56.69;100015.88;4964572;28;6864;-74
2024/01/14 12:13:04;;;;;;;;;;;;;;;5.50;56.64;100005.69;4960660;28;7185;-75
2024/01/14 12:15:30;;;;;;;;;;;;;;;5.49;56.43;100007.38;4979901;28;7285;-75
2024/01/14 12:18:01;;;;;;;;;;;;;;;5.50;56.87;99998.06;4947313;28;7089;-75
2024/01/14 12:20:29;;;;;;;;;;;;;;;5.50;56.49;99993.88;4967184;28;6970;-74
2024/01/14 12:23:07;;;;;;;;;;;;;;;5.50;56.66;99991.34;4946860;28;7144;-75
2024/01/14 12:25:33;;;;;;;;;;;;;;;5.50;56.81;99980.28;4945101;28;7074;-75
2024/01/14 12:27:59;;;;;;;;;;;;;;;5.52;56.23;99981.28;4963569;28;6789;-75
2024/01/14 12:30:30;;;;;;;;;;;;;;;5.53;56.47;99965.22;4958564;28;7037;-76
2024/01/14 12:32:57;;;;;;;;;;;;;;;5.53;56.61;99967.78;4964119;28;6784;-74
2024/01/14 12:35:35;;;;;;;;;;;;;;;5.55;56.67;99956.91;4962311;28;6812;-74
2024/01/14 12:38:02;;;;;;;;;;;;;;;5.59;56.65;99950.34;4946050;28;7440;-75
2024/01/14 12:40:29;;;;;;;;;;;;;;;5.62;56.54;99940.38;4944610;28;7365;-75
2024/01/14 12:42:54;;;;;;;;;;;;;;;5.62;56.53;99935.28;4957669;28;6829;-76
2024/01/14 12:45:20;;;;;;;;;;;;;;;5.63;56.33;99928.50;4959529;28;7297;-75
2024/01/14 12:48:04;;;;;;;;;;;;;;;5.62;56.39;99920.03;4936973;28;8369;-74
2024/01/14 12:50:36;;;;;;;;;;;;;;;5.64;56.50;99917.56;4933064;28;7231;-74
2024/01/14 12:53:10;;;;;;;;;;;;;;;5.66;56.41;99909.25;4958479;28;6788;-75
2024/01/14 12:55:36;;;;;;;;;;;;;;;5.69;56.76;99904.31;4957793;28;7007;-74
2024/01/14 12:58:02;;;;;;;;;;;;;;;5.70;56.55;99900.13;4956916;28;7367;-75
2024/01/14 13:00:31;;;;;;;;;;;;;;;5.69;56.56;99899.25;4954276;28;6808;-74